createdAt,value
2018-11-13T00:01:02.137Z,86.54
2018-11-13T00:03:30.678Z,87.99
2018-11-13T00:05:59.152Z,87.62
2018-11-13T00:08:27.684Z,90.74
2018-11-13T00:10:56.207Z,89.83
2018-11-13T00:13:24.676Z,90.24
2018-11-13T00:15:53.384Z,91.44
2018-11-13T00:18:21.836Z,92.38
2018-11-13T00:20:50.354Z,90.36
2018-11-13T00:23:18.818Z,92.12
2018-11-13T00:25:47.358Z,93.85
2018-11-13T00:28:15.804Z,91.94
2018-11-13T00:30:44.271Z,91.63
2018-11-13T00:33:12.975Z,94.79
2018-11-13T00:35:41.476Z,94.25
2018-11-13T00:38:10.292Z,93.92
2018-11-13T00:40:38.806Z,92.85
2018-11-13T00:43:07.279Z,92.42
2018-11-13T00:45:35.847Z,94.92
2018-11-13T00:48:04.292Z,96.12
2018-11-13T00:50:32.821Z,95.38
2018-11-13T00:53:01.316Z,95.17
2018-11-13T00:55:29.788Z,95.71
2018-11-13T00:57:58.263Z,96.70
2018-11-13T01:00:26.771Z,97.21
2018-11-13T01:02:55.266Z,97.29
2018-11-13T01:05:23.917Z,97.98
2018-11-13T01:07:52.382Z,98.86
2018-11-13T01:10:21.734Z,99.83
2018-11-13T01:12:50.412Z,99.17
2018-11-13T01:15:20.214Z,98.88
2018-11-13T01:17:55.036Z,99.39
2018-11-13T01:20:23.532Z,96.75
2018-11-13T01:22:52.012Z,97.11
2018-11-13T01:25:20.528Z,95.92
2018-11-13T01:27:48.988Z,96.98
2018-11-13T01:30:18.174Z,97.39
2018-11-13T01:32:46.980Z,97.24
2018-11-13T01:35:16.892Z,97.27
2018-11-13T01:37:45.690Z,94.41
2018-11-13T01:40:15.733Z,93.80
2018-11-13T01:42:44.720Z,94.67
2018-11-13T01:45:14.446Z,93.29
2018-11-13T01:47:43.068Z,96.35
2018-11-13T01:50:12.365Z,96.58
2018-11-13T01:52:40.862Z,97.51
2018-11-13T01:55:11.544Z,96.99
2018-11-13T01:57:40.074Z,97.75
2018-11-13T02:00:17.420Z,95.34
2018-11-13T02:02:47.245Z,95.15
2018-11-13T02:05:16.204Z,98.55
2018-11-13T02:07:44.714Z,99.66
2018-11-13T02:10:13.211Z,97.57
2018-11-13T02:12:42.037Z,98.38
2018-11-13T02:15:10.984Z,97.97
2018-11-13T02:17:39.707Z,97.52
2018-11-13T02:20:14.390Z,98.14
2018-11-13T02:22:43.224Z,96.92
2018-11-13T02:25:13.783Z,95.91
2018-11-13T02:27:42.827Z,95.44
2018-11-13T02:30:15.014Z,93.71
2018-11-13T02:32:44.130Z,96.28
2018-11-13T02:35:13.449Z,97.35
2018-11-13T02:37:42.155Z,96.19
2018-11-13T02:40:10.646Z,96.85
2018-11-13T02:42:39.460Z,96.13
2018-11-13T02:45:11.178Z,96.42
2018-11-13T02:47:40.068Z,95.96
2018-11-13T02:50:10.329Z,96.56
2018-11-13T02:52:39.943Z,97.14
2018-11-13T02:55:09.650Z,96.46
2018-11-13T02:57:38.193Z,96.02
2018-11-13T03:00:10.536Z,92.67
2018-11-13T03:02:39.379Z,96.39
2018-11-13T03:05:09.931Z,95.65
2018-11-13T03:07:39.496Z,93.94
2018-11-13T03:10:09.763Z,95.07
2018-11-13T03:12:38.229Z,94.34
2018-11-13T03:15:08.202Z,94.75
2018-11-13T03:17:36.903Z,96.80
2018-11-13T03:23:37.647Z,97.26
2018-11-13T03:26:07.331Z,96.57
2018-11-13T03:28:36.129Z,95.45
2018-11-13T03:31:04.685Z,95.12
2018-11-13T03:33:33.227Z,93.84
2018-11-13T03:36:01.722Z,94.49
2018-11-13T03:38:30.191Z,96.26
2018-11-13T03:40:58.661Z,94.74
2018-11-13T03:43:27.203Z,97.51
2018-11-13T03:45:55.688Z,96.96
2018-11-13T03:48:24.378Z,95.34
2018-11-13T03:50:52.904Z,93.96
2018-11-13T03:53:21.384Z,95.88
2018-11-13T03:55:49.898Z,94.09
2018-11-13T03:58:18.388Z,97.64
2018-11-13T04:00:46.908Z,96.17
2018-11-13T04:03:15.379Z,98.43
2018-11-13T04:05:43.840Z,98.22
2018-11-13T04:08:12.348Z,96.27
2018-11-13T04:10:40.861Z,94.53
2018-11-13T04:13:09.320Z,96.75
2018-11-13T04:15:37.904Z,95.77
2018-11-13T04:18:06.696Z,96.80
2018-11-13T04:20:35.156Z,96.42
2018-11-13T04:23:04.016Z,94.68
2018-11-13T04:25:32.672Z,95.42
2018-11-13T04:28:01.131Z,93.61
2018-11-13T04:30:29.954Z,94.46
2018-11-13T04:32:58.572Z,95.05
2018-11-13T04:35:27.115Z,94.36
2018-11-13T04:37:55.617Z,97.02
2018-11-13T04:40:24.102Z,99.49
2018-11-13T04:42:53.635Z,93.53
2018-11-13T04:45:24.457Z,90.04
2018-11-13T04:47:53.021Z,90.58
2018-11-13T04:50:22.723Z,92.58
2018-11-13T04:52:51.215Z,94.83
2018-11-13T04:55:20.159Z,93.05
2018-11-13T04:57:49.915Z,95.19
2018-11-13T05:00:22.596Z,92.42
2018-11-13T05:02:51.150Z,96.06
2018-11-13T05:05:20.444Z,95.80
2018-11-13T05:07:51.186Z,93.97
2018-11-13T05:10:19.867Z,94.41
2018-11-13T05:12:48.952Z,91.78
2018-11-13T05:15:17.499Z,91.87
2018-11-13T05:17:46.421Z,91.05
2018-11-13T05:20:15.812Z,94.64
2018-11-13T05:22:44.318Z,94.05
2018-11-13T05:25:15.062Z,94.97
2018-11-13T05:27:44.077Z,96.57
2018-11-13T05:30:22.294Z,96.19
2018-11-13T05:32:51.467Z,97.05
2018-11-13T05:35:21.227Z,96.26
2018-11-13T05:37:49.871Z,94.61
2018-11-13T05:40:19.875Z,92.27
2018-11-13T05:42:48.395Z,95.35
2018-11-13T05:45:18.213Z,95.97
2018-11-13T05:47:46.719Z,96.26
2018-11-13T05:50:16.374Z,96.15
2018-11-13T05:52:46.080Z,96.71
2018-11-13T05:55:15.369Z,95.64
2018-11-13T05:57:43.880Z,91.73
2018-11-13T06:00:20.481Z,92.43
2018-11-13T06:02:48.951Z,94.17
2018-11-13T06:05:17.608Z,95.80
2018-11-13T06:07:46.288Z,92.92
2018-11-13T06:10:14.764Z,92.63
2018-11-13T06:12:43.603Z,92.85
2018-11-13T06:15:12.595Z,93.27
2018-11-13T06:17:41.107Z,96.21
2018-11-13T06:20:11.364Z,94.61
2018-11-13T06:22:39.948Z,93.14
2018-11-13T06:25:10.444Z,90.53
2018-11-13T06:27:39.589Z,90.84
2018-11-13T06:30:11.817Z,91.88
2018-11-13T06:32:40.288Z,91.11
2018-11-13T06:35:09.062Z,93.49
2018-11-13T06:37:37.896Z,96.61
2018-11-13T06:40:07.464Z,97.18
2018-11-13T06:42:36.371Z,98.13
2018-11-13T06:45:05.528Z,95.36
2018-11-13T06:47:34.008Z,95.48
2018-11-13T06:50:02.534Z,99.41
2018-11-13T06:52:31.046Z,99.63
2018-11-13T06:55:09.479Z,98.91
2018-11-13T06:57:38.180Z,100.00
2018-11-13T07:00:08.844Z,96.95
2018-11-13T07:02:38.413Z,95.63
2018-11-13T07:05:13.344Z,93.15
2018-11-13T07:07:42.983Z,98.25
2018-11-13T07:10:13.243Z,95.47
2018-11-13T07:12:43.134Z,99.60
2018-11-13T07:15:13.744Z,100.00
2018-11-13T07:17:43.386Z,94.90
2018-11-13T07:20:11.844Z,93.60
2018-11-13T07:22:40.567Z,93.07
2018-11-13T07:25:09.188Z,92.37
2018-11-13T07:27:37.871Z,93.59
2018-11-13T07:30:08.391Z,94.76
2018-11-13T07:32:37.399Z,95.20
2018-11-13T07:35:07.960Z,96.38
2018-11-13T07:37:37.600Z,97.24
2018-11-13T07:40:07.016Z,97.70
2018-11-13T07:42:35.497Z,98.90
2018-11-13T07:45:04.182Z,92.22
2018-11-13T07:47:32.836Z,93.99
2018-11-13T07:50:01.341Z,94.29
2018-11-13T07:52:29.825Z,95.86
2018-11-13T07:54:58.309Z,97.76
2018-11-13T07:57:26.956Z,98.68
2018-11-13T07:59:55.440Z,99.02
2018-11-13T08:02:23.910Z,100.00
2018-11-13T08:04:52.440Z,98.00
2018-11-13T08:07:20.946Z,100.00
2018-11-13T08:09:49.352Z,98.64
2018-11-13T08:12:18.054Z,99.60
2018-11-13T08:14:47.120Z,100.00
2018-11-13T08:17:15.596Z,100.00
2018-11-13T08:19:44.069Z,100.00
2018-11-13T08:22:12.581Z,100.00
2018-11-13T08:24:41.032Z,100.00
2018-11-13T08:27:09.752Z,100.00
2018-11-13T08:29:38.218Z,99.59
2018-11-13T08:32:06.697Z,100.00
2018-11-13T08:34:35.198Z,100.00
2018-11-13T08:37:03.676Z,100.00
2018-11-13T08:39:32.200Z,100.00
2018-11-13T08:42:00.662Z,100.00
2018-11-13T08:44:29.162Z,100.00
2018-11-13T08:46:57.814Z,100.00
2018-11-13T08:49:26.343Z,98.66
2018-11-13T08:51:54.880Z,100.00
2018-11-13T08:54:23.358Z,100.00
2018-11-13T08:56:51.816Z,100.00
2018-11-13T08:59:20.428Z,100.00
2018-11-13T09:01:48.802Z,100.00
2018-11-13T09:04:17.321Z,100.00
2018-11-13T09:06:45.815Z,100.00
2018-11-13T09:09:15.205Z,100.00
2018-11-13T09:11:44.031Z,100.00
2018-11-13T09:14:12.661Z,100.00
2018-11-13T09:16:41.366Z,100.00
2018-11-13T09:19:09.991Z,100.00
2018-11-13T09:21:38.426Z,100.00
2018-11-13T09:24:06.905Z,98.68
2018-11-13T09:26:35.380Z,100.00
2018-11-13T09:29:03.932Z,100.00
2018-11-13T09:31:32.432Z,100.00
2018-11-13T09:34:01.029Z,100.00
2018-11-13T09:36:29.491Z,100.00
2018-11-13T09:38:57.979Z,100.00
2018-11-13T09:41:26.479Z,100.00
2018-11-13T09:43:54.983Z,100.00
2018-11-13T09:46:23.502Z,99.37
2018-11-13T09:48:53.005Z,100.00
2018-11-13T09:51:21.467Z,100.00
2018-11-13T09:53:50.033Z,98.49
2018-11-13T09:56:18.489Z,99.04
2018-11-13T09:58:46.973Z,97.91
2018-11-13T10:01:15.978Z,94.16
2018-11-13T10:03:44.726Z,96.14
2018-11-13T10:06:12.623Z,94.99
2018-11-13T10:08:41.144Z,93.98
2018-11-13T10:11:09.657Z,93.53
2018-11-13T10:13:38.178Z,93.10
2018-11-13T10:16:06.725Z,95.77
2018-11-13T10:18:35.149Z,93.90
2018-11-13T10:21:03.913Z,94.67
2018-11-13T10:23:32.861Z,93.90
2018-11-13T10:26:01.601Z,94.28
2018-11-13T10:28:30.096Z,91.73
2018-11-13T10:30:58.631Z,89.29
2018-11-13T10:33:27.256Z,90.05
2018-11-13T10:35:55.740Z,92.70
2018-11-13T10:38:24.206Z,92.17
2018-11-13T10:40:52.798Z,93.44
2018-11-13T10:43:21.252Z,92.05
2018-11-13T10:45:49.686Z,90.24
2018-11-13T10:48:18.340Z,90.83
2018-11-13T10:50:46.811Z,88.83
2018-11-13T10:53:15.308Z,90.79
2018-11-13T10:55:43.787Z,88.93
2018-11-13T10:58:12.296Z,87.96
2018-11-13T11:00:45.835Z,90.87
2018-11-13T11:03:19.504Z,90.02
2018-11-13T11:05:47.999Z,89.49
2018-11-13T11:08:16.530Z,90.04
2018-11-13T11:10:45.041Z,91.81
2018-11-13T11:13:13.616Z,89.48
2018-11-13T11:15:42.020Z,87.50
2018-11-13T11:18:10.520Z,88.55
2018-11-13T11:20:39.008Z,88.40
2018-11-13T11:23:07.525Z,86.46
2018-11-13T11:25:35.980Z,85.11
2018-11-13T11:28:04.578Z,83.76
2018-11-13T11:30:32.999Z,83.62
2018-11-13T11:33:01.445Z,81.24
2018-11-13T11:35:29.969Z,79.83
2018-11-13T11:37:58.464Z,79.03
2018-11-13T11:40:26.965Z,78.68
2018-11-13T11:42:55.459Z,80.51
2018-11-13T11:45:24.224Z,78.90
2018-11-13T11:47:52.762Z,78.48
2018-11-13T11:50:21.840Z,78.25
2018-11-13T11:52:50.320Z,78.39
2018-11-13T11:55:18.800Z,76.69
2018-11-13T11:57:47.311Z,78.01
2018-11-13T12:00:18.380Z,79.79
2018-11-13T12:02:46.858Z,73.91
2018-11-13T12:05:15.377Z,76.74
2018-11-13T12:07:43.826Z,76.16
2018-11-13T12:10:13.801Z,73.02
2018-11-13T12:12:42.556Z,73.14
2018-11-13T12:15:22.110Z,75.12
2018-11-13T12:17:50.571Z,76.52
2018-11-13T12:20:19.023Z,75.71
2018-11-13T12:22:47.491Z,78.17
2018-11-13T12:25:17.596Z,78.20
2018-11-13T12:27:46.124Z,77.69
2018-11-13T12:30:16.839Z,77.06
2018-11-13T12:32:46.136Z,79.97
2018-11-13T12:35:15.752Z,77.82
2018-11-13T12:37:44.246Z,79.10
2018-11-13T12:40:16.082Z,75.28
2018-11-13T12:42:46.516Z,77.10
2018-11-13T12:45:14.206Z,78.53
2018-11-13T12:47:43.342Z,79.85
2018-11-13T12:50:13.344Z,78.67
2018-11-13T12:52:42.094Z,80.29
2018-11-13T12:55:13.391Z,80.06
2018-11-13T12:57:41.847Z,78.70
2018-11-13T13:00:14.471Z,81.09
2018-11-13T13:02:42.980Z,79.81
2018-11-13T13:05:11.572Z,80.25
2018-11-13T13:07:40.523Z,80.78
2018-11-13T13:10:11.829Z,81.58
2018-11-13T13:12:40.360Z,80.68
2018-11-13T13:15:11.563Z,80.51
2018-11-13T13:17:40.363Z,81.58
2018-11-13T13:20:12.417Z,79.97
2018-11-13T13:22:41.320Z,82.33
2018-11-13T13:25:12.340Z,80.36
2018-11-13T13:27:41.047Z,81.41
2018-11-13T13:30:12.870Z,80.26
2018-11-13T13:32:41.331Z,79.33
2018-11-13T13:35:47.714Z,81.47
2018-11-13T13:38:16.274Z,81.84
2018-11-13T13:40:45.859Z,81.39
2018-11-13T13:43:15.092Z,83.40
2018-11-13T13:45:44.463Z,82.79
2018-11-13T13:48:13.035Z,81.78
2018-11-13T13:50:41.596Z,83.71
2018-11-13T13:53:11.443Z,82.27
2018-11-13T13:55:40.136Z,84.70
2018-11-13T13:58:08.727Z,84.23
2018-11-13T14:00:37.370Z,83.80
2018-11-13T14:03:07.504Z,82.45
2018-11-13T14:05:36.122Z,85.10
2018-11-13T14:08:04.893Z,85.61
2018-11-13T14:10:33.332Z,87.17
2018-11-13T14:13:01.897Z,86.67
2018-11-13T14:15:30.780Z,86.47
2018-11-13T14:17:59.468Z,86.01
2018-11-13T14:20:27.894Z,87.79
2018-11-13T14:22:56.399Z,86.84
2018-11-13T14:25:24.880Z,87.78
2018-11-13T14:27:53.358Z,87.87
2018-11-13T14:30:23.883Z,88.92
2018-11-13T14:32:53.292Z,90.25
2018-11-13T14:35:21.762Z,90.28
2018-11-13T14:37:50.620Z,92.45
2018-11-13T14:40:25.461Z,92.21
2018-11-13T14:42:53.908Z,93.34
2018-11-13T14:45:23.428Z,91.29
2018-11-13T14:47:52.435Z,89.99
2018-11-13T14:50:22.688Z,91.93
2018-11-13T14:52:51.973Z,90.57
2018-11-13T14:55:29.414Z,92.61
2018-11-13T14:57:58.565Z,91.90
2018-11-13T15:00:28.507Z,91.59
2018-11-13T15:02:58.695Z,91.95
2018-11-13T15:05:27.831Z,93.06
2018-11-13T15:07:58.697Z,91.67
2018-11-13T15:10:33.862Z,93.48
2018-11-13T15:13:02.379Z,93.35
2018-11-13T15:15:30.806Z,93.36
2018-11-13T15:17:59.278Z,94.28
2018-11-13T15:20:27.728Z,92.70
2018-11-13T15:22:56.200Z,93.93
2018-11-13T15:25:24.660Z,92.16
2018-11-13T15:27:53.113Z,93.64
2018-11-13T15:30:24.382Z,91.22
2018-11-13T15:32:55.690Z,91.22
2018-11-13T15:35:24.133Z,93.65
2018-11-13T15:37:52.608Z,93.29
2018-11-13T15:40:22.856Z,91.31
2018-11-13T15:42:51.307Z,89.88
2018-11-13T15:45:20.459Z,88.83
2018-11-13T15:47:49.853Z,88.47
2018-11-13T15:50:22.967Z,88.79
2018-11-13T15:52:51.435Z,88.06
2018-11-13T15:55:20.481Z,87.30
2018-11-13T15:57:49.532Z,89.57
2018-11-13T16:00:21.515Z,88.90
2018-11-13T16:02:50.356Z,88.59
2018-11-13T16:05:24.199Z,85.29
2018-11-13T16:07:54.382Z,87.07
2018-11-13T16:10:23.094Z,88.67
2018-11-13T16:12:54.465Z,87.17
2018-11-13T16:15:26.553Z,86.05
2018-11-13T16:17:59.041Z,87.27
2018-11-13T16:20:30.359Z,87.94
2018-11-13T16:23:01.607Z,86.07
2018-11-13T16:25:32.878Z,84.85
2018-11-13T16:28:01.368Z,84.19
2018-11-13T16:30:32.294Z,82.45
2018-11-13T16:33:01.712Z,83.55
2018-11-13T16:35:31.750Z,82.02
2018-11-13T16:38:02.599Z,81.99
2018-11-13T16:40:33.017Z,82.63
2018-11-13T16:43:02.878Z,82.53
2018-11-13T16:45:33.469Z,82.12
2018-11-13T16:48:03.616Z,83.40
2018-11-13T16:50:34.445Z,81.92
2018-11-13T16:53:03.145Z,80.99
2018-11-13T16:55:37.890Z,82.65
2018-11-13T16:58:07.511Z,82.91
2018-11-13T17:00:36.184Z,83.56
2018-11-13T17:03:04.616Z,84.16
2018-11-13T17:05:33.614Z,83.88
2018-11-13T17:08:01.814Z,82.37
2018-11-13T17:10:31.375Z,80.92
2018-11-13T17:13:00.875Z,79.90
2018-11-13T17:15:30.783Z,83.33
2018-11-13T17:18:00.836Z,85.06
2018-11-13T17:20:29.414Z,83.86
2018-11-13T17:22:57.899Z,83.75
2018-11-13T17:25:28.654Z,83.18
2018-11-13T17:27:57.603Z,82.57
2018-11-13T17:30:29.822Z,85.48
2018-11-13T17:32:59.408Z,85.49
2018-11-13T17:35:28.893Z,85.02
2018-11-13T17:37:58.099Z,85.04
2018-11-13T17:40:29.062Z,85.73
2018-11-13T17:42:59.265Z,86.44
2018-11-13T17:45:30.370Z,86.19
2018-11-13T17:47:59.416Z,85.92
2018-11-13T17:50:31.181Z,83.24
2018-11-13T17:52:59.643Z,82.46
2018-11-13T17:55:28.206Z,82.58
2018-11-13T17:57:58.401Z,81.89
2018-11-13T18:00:31.202Z,82.00
2018-11-13T18:03:00.221Z,82.06
2018-11-13T18:05:29.471Z,83.56
2018-11-13T18:07:59.916Z,84.42
2018-11-13T18:10:29.527Z,86.88
2018-11-13T18:12:58.049Z,86.89
2018-11-13T18:15:27.687Z,89.07
2018-11-13T18:17:56.187Z,89.39
2018-11-13T18:20:27.103Z,89.23
2018-11-13T18:22:55.580Z,89.08
2018-11-13T18:25:24.015Z,88.40
2018-11-13T18:27:54.148Z,89.03
2018-11-13T18:30:23.929Z,88.67
2018-11-13T18:32:53.004Z,88.98
2018-11-13T18:35:23.930Z,90.75
2018-11-13T18:37:53.729Z,91.54
2018-11-13T18:40:23.293Z,93.47
2018-11-13T18:42:52.740Z,92.22
2018-11-13T18:45:24.940Z,91.94
2018-11-13T18:47:53.420Z,92.71
2018-11-13T18:50:26.325Z,93.83
2018-11-13T18:52:55.197Z,95.03
2018-11-13T18:55:23.464Z,96.21
2018-11-13T18:57:51.925Z,95.49
2018-11-13T19:00:22.433Z,93.88
2018-11-13T19:02:50.908Z,95.02
2018-11-13T19:05:19.795Z,95.72
2018-11-13T19:07:48.322Z,94.68
2018-11-13T19:10:27.261Z,94.10
2018-11-13T19:12:56.678Z,95.14
2018-11-13T19:15:25.234Z,94.81
2018-11-13T19:17:54.133Z,93.28
2018-11-13T19:20:24.047Z,94.03
2018-11-13T19:22:52.424Z,95.34
2018-11-13T19:25:23.439Z,93.63
2018-11-13T19:27:52.440Z,93.26
2018-11-13T19:30:21.567Z,94.88
2018-11-13T19:32:50.050Z,93.77
2018-11-13T19:35:19.012Z,92.49
2018-11-13T19:37:47.734Z,93.60
2018-11-13T19:40:19.525Z,95.08
2018-11-13T19:42:48.939Z,94.07
2018-11-13T19:45:17.925Z,94.11
2018-11-13T19:47:46.488Z,92.74
2018-11-13T19:50:17.571Z,93.52
2018-11-13T19:52:46.028Z,93.70
2018-11-13T19:55:15.385Z,93.66
2018-11-13T19:57:44.697Z,94.32
2018-11-13T20:00:26.723Z,92.71
2018-11-13T20:02:56.543Z,92.37
2018-11-13T20:05:25.667Z,95.81
2018-11-13T20:07:54.191Z,91.24
2018-11-13T20:10:24.265Z,91.86
2018-11-13T20:12:53.727Z,92.93
2018-11-13T20:15:23.775Z,93.71
2018-11-13T20:17:52.213Z,93.18
2018-11-13T20:20:22.165Z,92.83
2018-11-13T20:22:51.333Z,93.59
2018-11-13T20:25:23.116Z,94.23
2018-11-13T20:27:51.855Z,91.33
2018-11-13T20:30:21.923Z,93.83
2018-11-13T20:32:51.244Z,92.01
2018-11-13T20:35:19.715Z,92.91
2018-11-13T20:37:48.896Z,90.69
2018-11-13T20:40:28.215Z,92.27
2018-11-13T20:42:58.257Z,92.16
2018-11-13T20:45:27.036Z,90.78
2018-11-13T20:47:55.503Z,92.54
2018-11-13T20:50:25.568Z,89.63
2018-11-13T20:52:54.044Z,88.22
2018-11-13T20:55:22.682Z,87.08
2018-11-13T20:57:51.139Z,87.95
2018-11-13T21:00:21.576Z,83.85
2018-11-13T21:02:49.842Z,87.21
2018-11-13T21:05:18.577Z,86.77
2018-11-13T21:07:47.074Z,88.09
2018-11-13T21:10:18.451Z,85.03
2018-11-13T21:12:47.063Z,87.23
2018-11-13T21:15:17.077Z,86.77
2018-11-13T21:17:45.524Z,86.19
2018-11-13T21:20:15.663Z,86.92
2018-11-13T21:22:44.156Z,89.65
2018-11-13T21:25:15.214Z,87.67
2018-11-13T21:27:43.689Z,88.23
2018-11-13T21:30:18.007Z,87.90
2018-11-13T21:32:47.092Z,86.92
2018-11-13T21:35:16.159Z,87.25
2018-11-13T21:37:46.114Z,88.90
2018-11-13T21:40:16.055Z,88.69
2018-11-13T21:42:46.105Z,87.00
2018-11-13T21:45:15.639Z,86.77
2018-11-13T21:47:44.767Z,87.58
2018-11-13T21:50:14.781Z,83.48
2018-11-13T21:52:43.664Z,86.41
2018-11-13T21:55:14.108Z,86.10
2018-11-13T21:57:42.565Z,85.11
2018-11-13T22:00:16.248Z,84.37
2018-11-13T22:02:46.870Z,85.66
2018-11-13T22:05:15.320Z,85.47
2018-11-13T22:07:43.779Z,86.31
2018-11-13T22:10:12.476Z,85.32
2018-11-13T22:12:41.292Z,86.73
2018-11-13T22:15:13.229Z,85.28
2018-11-13T22:17:42.048Z,85.77
2018-11-13T22:20:12.590Z,85.97
2018-11-13T22:22:41.519Z,85.55
2018-11-13T22:25:12.420Z,86.33
2018-11-13T22:27:41.568Z,86.37
2018-11-13T22:30:12.206Z,84.56
2018-11-13T22:32:40.803Z,84.90
2018-11-13T22:35:10.821Z,85.15
2018-11-13T22:37:39.732Z,84.83
2018-11-13T22:40:10.875Z,84.71
2018-11-13T22:42:39.772Z,84.14
2018-11-13T22:45:10.626Z,85.56
2018-11-13T22:47:40.000Z,87.03
2018-11-13T22:50:11.966Z,87.49
2018-11-13T22:52:40.995Z,86.98
2018-11-13T22:55:10.904Z,89.04
2018-11-13T22:57:39.724Z,86.05
2018-11-13T23:00:12.608Z,87.72
2018-11-13T23:02:41.051Z,86.65
2018-11-13T23:05:09.739Z,86.43
2018-11-13T23:07:38.759Z,87.07
2018-11-13T23:10:09.052Z,88.11
2018-11-13T23:12:37.660Z,89.87
2018-11-13T23:15:08.117Z,93.71
2018-11-13T23:17:36.727Z,93.96
2018-11-13T23:20:06.908Z,92.96
2018-11-13T23:22:35.551Z,91.62
2018-11-13T23:25:04.028Z,92.84
2018-11-13T23:27:32.495Z,91.90
2018-11-13T23:30:00.964Z,92.13
2018-11-13T23:32:29.420Z,92.97
2018-11-13T23:34:58.009Z,92.71
2018-11-13T23:37:26.467Z,89.24
2018-11-13T23:39:54.919Z,89.57
2018-11-13T23:42:23.381Z,91.86
2018-11-13T23:44:52.427Z,90.77
2018-11-13T23:47:21.000Z,90.89
2018-11-13T23:49:49.433Z,90.73
2018-11-13T23:52:17.971Z,89.40
2018-11-13T23:54:46.391Z,93.18
2018-11-13T23:57:14.824Z,95.42
2018-11-13T23:59:43.278Z,95.62
